Mitilini, Greece
Current Conditions -  °F | °C
As of 4:20 AM on Thursday 23 Oct 2014 (Local Time) from LGMT Reporting Station
Scattered Clouds Scattered Clouds  
Wind Chill: 68°   Ceiling: Unl
Heat Index: 68°   Visibility: 6mi
Dew Point: 63°   Wind: 21mph
Humidity: 83%   Direction: 150°SSE
Pressure: 29.71"   Gusts: 32mph
Location:  39.11°N, 26.55°E
Report Text: LGMT 230120Z 15018G28KT 130V220 9999 FEW020 SCT025 20/17 Q1006
Loading
Personal Weather Stations






























Interactive Weather Map
Tropical Storm Tracking
New forecast layout! Learn more

10-Day Weather Forecast

Advertisements
Track Severe Weather on mobile